APL Norway — A8NC4 — position and weather

sailwx.info

Track history (hours):
 
Tides and Currents Weather Stations Pressure Air Temp Water Temp Dewpoint Dewpoint Depression Visibility Wind Speed Wind Dir Waves Ship Positions

APL Norway

Last reported at 2017-Jun-24 08:30 UTC. Time now 2017-Jun-24 08:56 UTC.
Position N 01°14' E 103°53'.

Length 295 m; draft 12.5 m.

Type: Ship (hazmat cat A). MMSI: 636013456.

Date/timePositionNaut miles runAvg speedWind from/ knotsBaromVisibWave heightAir tempDewpointWater temp
2017-Jun-24 08:30N 01°14' E 103°53'1 3.0
2017-Jun-24 08:00N 01°13' E 103°54'4 6.9
2017-Jun-24 07:30N 01°11' E 103°50'612.1
2017-Jun-24 07:00N 01°08' E 103°46'714.6
2017-Jun-24 06:30N 01°03' E 103°40'815.3
2017-Jun-24 06:00N 01°07' E 103°33'5 9.4
2017-Jun-24 05:30N 01°11' E 103°32'510.1
2017-Jun-24 05:00N 01°16' E 103°33'4 8.9
2017-Jun-24 04:30N 01°21' E 103°33'0 0.8
2017-Jun-24 04:00N 01°21' E 103°33'0 0.0
2017-Jun-24 03:29N 01°21' E 103°33'0 0.0
2017-Jun-24 02:53N 01°21' E 103°33'0 0.0
2017-Jun-24 02:23N 01°21' E 103°33'0 0.0
2017-Jun-24 01:53N 01°21' E 103°33'0 0.0
2017-Jun-24 01:23N 01°21' E 103°33'0 0.0
2017-Jun-24 00:56N 01°21' E 103°33'0 0.0
2017-Jun-24 00:26N 01°21' E 103°33'0 0.0
2017-Jun-23 23:53N 01°21' E 103°33'0 0.0
2017-Jun-23 23:26N 01°21' E 103°33'0 0.0
2017-Jun-23 22:53N 01°21' E 103°33'0 0.0
2017-Jun-23 22:29N 01°21' E 103°33'0 0.0
2017-Jun-23 21:47N 01°21' E 103°33'0 0.0
2017-Jun-23 21:26N 01°21' E 103°33'0 0.0
2017-Jun-23 20:53N 01°21' E 103°33'0 0.0
2017-Jun-23 20:20N 01°21' E 103°33'0 0.0
2017-Jun-23 18:44N 01°21' E 103°33'0 0.0
2017-Jun-23 18:29N 01°21' E 103°33'0 0.0
2017-Jun-23 17:50N 01°21' E 103°33'0 0.0
2017-Jun-23 17:26N 01°21' E 103°33'0 0.0
2017-Jun-23 16:53N 01°21' E 103°33'0 0.0
2017-Jun-23 16:17N 01°21' E 103°33'0 0.0
2017-Jun-23 15:56N 01°21' E 103°33'0 0.0
2017-Jun-23 15:23N 01°21' E 103°33'0 0.0
2017-Jun-23 14:44N 01°21' E 103°33'0 0.0
2017-Jun-23 13:50N 01°21' E 103°33'0 0.0
2017-Jun-23 13:29N 01°21' E 103°33'0 0.0
2017-Jun-23 12:53N 01°21' E 103°33'0 0.0
2017-Jun-23 12:29N 01°21' E 103°33'0 0.0
2017-Jun-23 11:56N 01°21' E 103°33'0 0.0
2017-Jun-23 11:29N 01°21' E 103°33'0 0.0
2017-Jun-23 10:56N 01°21' E 103°33'0 0.0
2017-Jun-23 10:23N 01°21' E 103°33'0 0.0
2017-Jun-23 09:47N 01°21' E 103°33'0 0.0
2017-Jun-23 09:23N 01°21' E 103°33'0 0.1
2017-Jun-23 08:32N 01°21' E 103°33'0 0.2
2017-Jun-23 08:11N 01°21' E 103°33'0 0.0
2017-Jun-23 07:53N 01°21' E 103°33'0 0.0
2017-Jun-23 07:05N 01°21' E 103°33'0 0.0
2017-Jun-23 06:56N 01°21' E 103°33'0 0.0
2017-Jun-23 06:20N 01°21' E 103°33'0 0.0
2017-Jun-23 05:53N 01°21' E 103°33'0 0.0
2017-Jun-23 05:29N 01°21' E 103°33'0 0.1
2017-Jun-23 04:56N 01°21' E 103°33'0 0.1
2017-Jun-23 04:26N 01°21' E 103°33'0 0.0
2017-Jun-23 03:56N 01°21' E 103°33'0 0.0
2017-Jun-23 03:26N 01°21' E 103°33'0 0.0
2017-Jun-23 02:56N 01°21' E 103°33'0 0.0
2017-Jun-23 02:30N 01°21' E 103°33'1 3.0
2017-Jun-23 02:00N 01°20' E 103°33'5 9.2
2017-Jun-23 01:30N 01°15' E 103°33'2 3.9
2017-Jun-23 01:00N 01°14' E 103°31'1 1.4
2017-Jun-23 00:09N 01°15' E 103°30'0 0.3
2017-Jun-22 23:54N 01°15' E 103°30'0 0.3
2017-Jun-22 23:24N 01°15' E 103°30'0 0.2
2017-Jun-22 22:57N 01°15' E 103°30'0 0.0
2017-Jun-22 22:30N 01°15' E 103°30'0 0.0
2017-Jun-22 22:00N 01°15' E 103°30'0 0.0
2017-Jun-22 21:30N 01°15' E 103°30'0 0.0
2017-Jun-22 20:51N 01°15' E 103°30'0 0.0
2017-Jun-22 20:24N 01°15' E 103°30'0 0.0
2017-Jun-22 19:57N 01°15' E 103°30'0 0.0
2017-Jun-22 19:21N 01°15' E 103°30'0 0.1
2017-Jun-22 18:12N 01°15' E 103°30'0 0.3
2017-Jun-22 17:48N 01°15' E 103°30'0 0.2
2017-Jun-22 17:18N 01°15' E 103°30'0 0.1
2017-Jun-22 17:00N 01°15' E 103°30'0 0.0
2017-Jun-22 14:03N 01°15' E 103°30'0 0.1
2017-Jun-22 13:24N 01°15' E 103°30'0 0.1
2017-Jun-22 12:42N 01°15' E 103°30'0 0.2
2017-Jun-22 12:21N 01°15' E 103°30'0 0.4
2017-Jun-22 11:54N 01°15' E 103°30'0 0.5
2017-Jun-22 11:30N 01°15' E 103°30'0 0.1
2017-Jun-22 11:00N 01°15' E 103°30'0 0.0
2017-Jun-22 10:24N 01°15' E 103°30'0 0.0
2017-Jun-22 10:00N 01°15' E 103°30'0 0.0
2017-Jun-22 09:27N 01°15' E 103°30'0 0.0
2017-Jun-22 08:33N 01°15' E 103°30'0 0.1
2017-Jun-22 08:18N 01°15' E 103°30'0 0.3
2017-Jun-22 08:00N 01°15' E 103°30'0 0.9
2017-Jun-22 07:30N 01°15' E 103°30'4 8.1
2017-Jun-22 07:00N 01°12' E 103°33'612.0
2017-Jun-22 06:30N 01°11' E 103°39'611.3
2017-Jun-22 06:00N 01°08' E 103°44'713.9
2017-Jun-22 05:30N 01°11' E 103°50'713.3
2017-Jun-22 05:00N 01°14' E 103°56'712.7
2017-Jun-22 04:29N 01°16' E 104°03'  
2017-Jun-15 10:39N 30°29' E 122°39'213.6
2017-Jun-15 10:30N 30°30' E 122°36'714.0
2017-Jun-15 10:00N 30°31' E 122°29'714.6
2017-Jun-15 09:30N 30°32' E 122°20'812.6
2017-Jun-15 08:52N 30°33' E 122°11'23 1.4
2017-Jun-14 16:15N 30°29' E 122°37'  
Track history (hours):
 
Tides and Currents Weather Stations Pressure Air Temp Water Temp Dewpoint Dewpoint Depression Visibility Wind Speed Wind Dir Waves Ship Positions

APL Norway

Last reported at 2017-Jun-24 08:30 UTC. Time now 2017-Jun-24 08:56 UTC.
Position N 01°14' E 103°53'.

Length 295 m; draft 12.5 m.

Type: Ship (hazmat cat A). MMSI: 636013456.

Date/timePositionNaut miles runAvg speedWind from/ knotsBaromVisibWave heightAir tempDewpointWater temp
2017-Jun-24 08:30N 01°14' E 103°53'1 3.0
2017-Jun-24 08:00N 01°13' E 103°54'4 6.9
2017-Jun-24 07:30N 01°11' E 103°50'612.1
2017-Jun-24 07:00N 01°08' E 103°46'714.6
2017-Jun-24 06:30N 01°03' E 103°40'815.3
2017-Jun-24 06:00N 01°07' E 103°33'5 9.4
2017-Jun-24 05:30N 01°11' E 103°32'510.1
2017-Jun-24 05:00N 01°16' E 103°33'4 8.9
2017-Jun-24 04:30N 01°21' E 103°33'0 0.8
2017-Jun-24 04:00N 01°21' E 103°33'0 0.0
2017-Jun-24 03:29N 01°21' E 103°33'0 0.0
2017-Jun-24 02:53N 01°21' E 103°33'0 0.0
2017-Jun-24 02:23N 01°21' E 103°33'0 0.0
2017-Jun-24 01:53N 01°21' E 103°33'0 0.0
2017-Jun-24 01:23N 01°21' E 103°33'0 0.0
2017-Jun-24 00:56N 01°21' E 103°33'0 0.0
2017-Jun-24 00:26N 01°21' E 103°33'0 0.0
2017-Jun-23 23:53N 01°21' E 103°33'0 0.0
2017-Jun-23 23:26N 01°21' E 103°33'0 0.0
2017-Jun-23 22:53N 01°21' E 103°33'0 0.0
2017-Jun-23 22:29N 01°21' E 103°33'0 0.0
2017-Jun-23 21:47N 01°21' E 103°33'0 0.0
2017-Jun-23 21:26N 01°21' E 103°33'0 0.0
2017-Jun-23 20:53N 01°21' E 103°33'0 0.0
2017-Jun-23 20:20N 01°21' E 103°33'0 0.0
2017-Jun-23 18:44N 01°21' E 103°33'0 0.0
2017-Jun-23 18:29N 01°21' E 103°33'0 0.0
2017-Jun-23 17:50N 01°21' E 103°33'0 0.0
2017-Jun-23 17:26N 01°21' E 103°33'0 0.0
2017-Jun-23 16:53N 01°21' E 103°33'0 0.0
2017-Jun-23 16:17N 01°21' E 103°33'0 0.0
2017-Jun-23 15:56N 01°21' E 103°33'0 0.0
2017-Jun-23 15:23N 01°21' E 103°33'0 0.0
2017-Jun-23 14:44N 01°21' E 103°33'0 0.0
2017-Jun-23 13:50N 01°21' E 103°33'0 0.0
2017-Jun-23 13:29N 01°21' E 103°33'0 0.0
2017-Jun-23 12:53N 01°21' E 103°33'0 0.0
2017-Jun-23 12:29N 01°21' E 103°33'0 0.0
2017-Jun-23 11:56N 01°21' E 103°33'0 0.0
2017-Jun-23 11:29N 01°21' E 103°33'0 0.0
2017-Jun-23 10:56N 01°21' E 103°33'0 0.0
2017-Jun-23 10:23N 01°21' E 103°33'0 0.0
2017-Jun-23 09:47N 01°21' E 103°33'0 0.0
2017-Jun-23 09:23N 01°21' E 103°33'0 0.1
2017-Jun-23 08:32N 01°21' E 103°33'0 0.2
2017-Jun-23 08:11N 01°21' E 103°33'0 0.0
2017-Jun-23 07:53N 01°21' E 103°33'0 0.0
2017-Jun-23 07:05N 01°21' E 103°33'0 0.0
2017-Jun-23 06:56N 01°21' E 103°33'0 0.0
2017-Jun-23 06:20N 01°21' E 103°33'0 0.0
2017-Jun-23 05:53N 01°21' E 103°33'0 0.0
2017-Jun-23 05:29N 01°21' E 103°33'0 0.1
2017-Jun-23 04:56N 01°21' E 103°33'0 0.1
2017-Jun-23 04:26N 01°21' E 103°33'0 0.0
2017-Jun-23 03:56N 01°21' E 103°33'0 0.0
2017-Jun-23 03:26N 01°21' E 103°33'0 0.0
2017-Jun-23 02:56N 01°21' E 103°33'0 0.0
2017-Jun-23 02:30N 01°21' E 103°33'1 3.0
2017-Jun-23 02:00N 01°20' E 103°33'5 9.2
2017-Jun-23 01:30N 01°15' E 103°33'2 3.9
2017-Jun-23 01:00N 01°14' E 103°31'1 1.4
2017-Jun-23 00:09N 01°15' E 103°30'0 0.3
2017-Jun-22 23:54N 01°15' E 103°30'0 0.3
2017-Jun-22 23:24N 01°15' E 103°30'0 0.2
2017-Jun-22 22:57N 01°15' E 103°30'0 0.0
2017-Jun-22 22:30N 01°15' E 103°30'0 0.0
2017-Jun-22 22:00N 01°15' E 103°30'0 0.0
2017-Jun-22 21:30N 01°15' E 103°30'0 0.0
2017-Jun-22 20:51N 01°15' E 103°30'0 0.0
2017-Jun-22 20:24N 01°15' E 103°30'0 0.0
2017-Jun-22 19:57N 01°15' E 103°30'0 0.0
2017-Jun-22 19:21N 01°15' E 103°30'0 0.1
2017-Jun-22 18:12N 01°15' E 103°30'0 0.3
2017-Jun-22 17:48N 01°15' E 103°30'0 0.2
2017-Jun-22 17:18N 01°15' E 103°30'0 0.1
2017-Jun-22 17:00N 01°15' E 103°30'0 0.0
2017-Jun-22 14:03N 01°15' E 103°30'0 0.1
2017-Jun-22 13:24N 01°15' E 103°30'0 0.1
2017-Jun-22 12:42N 01°15' E 103°30'0 0.2
2017-Jun-22 12:21N 01°15' E 103°30'0 0.4
2017-Jun-22 11:54N 01°15' E 103°30'0 0.5
2017-Jun-22 11:30N 01°15' E 103°30'0 0.1
2017-Jun-22 11:00N 01°15' E 103°30'0 0.0
2017-Jun-22 10:24N 01°15' E 103°30'0 0.0
2017-Jun-22 10:00N 01°15' E 103°30'0 0.0
2017-Jun-22 09:27N 01°15' E 103°30'0 0.0
2017-Jun-22 08:33N 01°15' E 103°30'0 0.1
2017-Jun-22 08:18N 01°15' E 103°30'0 0.3
2017-Jun-22 08:00N 01°15' E 103°30'0 0.9
2017-Jun-22 07:30N 01°15' E 103°30'4 8.1
2017-Jun-22 07:00N 01°12' E 103°33'612.0
2017-Jun-22 06:30N 01°11' E 103°39'611.3
2017-Jun-22 06:00N 01°08' E 103°44'713.9
2017-Jun-22 05:30N 01°11' E 103°50'713.3
2017-Jun-22 05:00N 01°14' E 103°56'712.7
2017-Jun-22 04:29N 01°16' E 104°03'  
2017-Jun-15 10:39N 30°29' E 122°39'213.6
2017-Jun-15 10:30N 30°30' E 122°36'714.0
2017-Jun-15 10:00N 30°31' E 122°29'714.6
2017-Jun-15 09:30N 30°32' E 122°20'812.6
2017-Jun-15 08:52N 30°33' E 122°11'23 1.4
2017-Jun-14 16:15N 30°29' E 122°37'  

Dump ship's entire track history